createdAt,value
2022-10-19T00:02:11.520Z,2.20
2022-10-19T00:07:17.180Z,3.07
2022-10-19T00:12:25.029Z,2.13
2022-10-19T00:17:30.669Z,2.40
2022-10-19T00:22:38.667Z,2.20
2022-10-19T00:27:49.642Z,2.55
2022-10-19T00:32:54.920Z,2.53
2022-10-19T00:38:00.778Z,2.67
2022-10-19T00:43:09.151Z,2.60
2022-10-19T00:48:20.781Z,2.40
2022-10-19T00:53:28.838Z,2.50
2022-10-19T00:58:37.526Z,2.45
2022-10-19T01:03:43.264Z,1.80
2022-10-19T01:08:51.993Z,2.13
2022-10-19T01:14:14.600Z,1.90
2022-10-19T01:19:42.811Z,2.30
2022-10-19T01:24:59.631Z,2.00
2022-10-19T01:30:27.077Z,1.57
2022-10-19T01:35:38.075Z,1.90
2022-10-19T01:40:51.264Z,1.83
2022-10-19T01:46:03.811Z,2.27
2022-10-19T01:51:13.665Z,2.00
2022-10-19T01:56:21.126Z,2.10
2022-10-19T02:01:32.324Z,2.25
2022-10-19T02:06:38.747Z,2.30
2022-10-19T02:11:47.956Z,2.00
2022-10-19T02:17:02.531Z,1.90
2022-10-19T02:22:08.070Z,1.95
2022-10-19T02:27:13.794Z,2.07
2022-10-19T02:32:22.168Z,2.10
2022-10-19T02:37:27.599Z,2.07
2022-10-19T02:42:39.201Z,2.40
2022-10-19T02:47:52.605Z,1.80
2022-10-19T02:52:58.189Z,2.40
2022-10-19T02:58:03.935Z,2.00
2022-10-19T03:03:12.355Z,1.75
2022-10-19T03:08:17.770Z,1.87
2022-10-19T03:13:23.317Z,2.10
2022-10-19T03:18:32.287Z,2.22
2022-10-19T03:23:37.999Z,2.50
2022-10-19T03:28:43.540Z,2.30
2022-10-19T03:33:51.545Z,2.13
2022-10-19T03:38:58.637Z,2.17
2022-10-19T03:44:04.562Z,2.10
2022-10-19T03:49:13.207Z,2.22
2022-10-19T03:54:22.500Z,2.30
2022-10-19T03:59:31.956Z,2.00
2022-10-19T04:04:40.392Z,2.53
2022-10-19T04:09:46.831Z,2.70
2022-10-19T04:14:57.449Z,2.50
2022-10-19T04:20:06.723Z,2.27
2022-10-19T04:25:14.263Z,3.30
2022-10-19T04:30:20.123Z,3.80
2022-10-19T04:35:30.648Z,3.63
2022-10-19T04:40:38.455Z,4.47
2022-10-19T04:45:44.089Z,4.28
2022-10-19T04:50:52.072Z,4.60
2022-10-19T04:56:00.167Z,4.68
2022-10-19T05:01:10.995Z,4.00
2022-10-19T05:06:19.262Z,4.83
2022-10-19T05:11:24.983Z,4.40
2022-10-19T05:16:30.222Z,3.80
2022-10-19T05:21:38.682Z,7.17
2022-10-19T05:26:44.320Z,3.80
2022-10-19T05:31:50.272Z,3.47
2022-10-19T05:36:58.984Z,3.58
2022-10-19T05:42:04.580Z,3.88
2022-10-19T05:47:11.539Z,4.10
2022-10-19T05:52:20.288Z,6.28
2022-10-19T05:57:25.498Z,3.95
2022-10-19T06:02:31.104Z,4.57
2022-10-19T06:07:39.076Z,3.55
2022-10-19T06:12:44.331Z,4.07
2022-10-19T06:17:49.778Z,4.20
2022-10-19T06:22:58.907Z,4.45
2022-10-19T06:28:05.163Z,4.70
2022-10-19T06:33:13.594Z,4.15
2022-10-19T06:38:21.604Z,4.80
2022-10-19T06:43:27.355Z,4.03
2022-10-19T06:48:36.032Z,4.50
2022-10-19T06:53:44.049Z,4.03
2022-10-19T06:58:50.227Z,4.87
2022-10-19T07:03:56.244Z,5.00
2022-10-19T07:09:04.833Z,4.77
2022-10-19T07:14:10.357Z,4.57
2022-10-19T07:19:16.065Z,5.07
2022-10-19T07:24:23.947Z,5.10
2022-10-19T07:29:29.453Z,5.30
2022-10-19T07:34:35.149Z,5.07
2022-10-19T07:39:45.373Z,5.13
2022-10-19T07:44:50.630Z,5.53
2022-10-19T07:49:56.055Z,5.30
2022-10-19T07:55:04.304Z,5.30
2022-10-19T08:00:11.255Z,7.00
2022-10-19T08:05:17.864Z,5.83
2022-10-19T08:10:26.531Z,5.20
2022-10-19T08:15:32.604Z,5.55
2022-10-19T08:20:38.246Z,4.80
2022-10-19T08:25:46.339Z,4.47
2022-10-19T08:30:52.039Z,4.45
2022-10-19T08:35:58.163Z,4.37
2022-10-19T08:41:11.973Z,3.57
2022-10-19T08:46:25.923Z,4.47
2022-10-19T08:51:35.055Z,3.73
2022-10-19T08:56:51.731Z,3.50
2022-10-19T09:02:00.179Z,2.85
2022-10-19T09:07:27.529Z,3.00
2022-10-19T09:12:47.692Z,2.70
2022-10-19T09:17:53.277Z,2.33
2022-10-19T09:23:13.029Z,1.83
2022-10-19T09:28:39.701Z,2.03
2022-10-19T09:33:53.185Z,2.30
2022-10-19T09:38:58.421Z,2.30
2022-10-19T09:44:06.716Z,2.25
2022-10-19T09:49:12.379Z,1.90
2022-10-19T09:54:37.409Z,2.27
2022-10-19T09:59:45.604Z,2.05
2022-10-19T10:04:59.405Z,2.38
2022-10-19T10:10:11.506Z,2.70
2022-10-19T10:15:25.526Z,2.60
2022-10-19T10:20:33.262Z,2.35
2022-10-19T10:25:51.311Z,2.37
2022-10-19T10:31:05.299Z,1.95
2022-10-19T10:36:12.660Z,2.67
2022-10-19T10:41:20.540Z,2.97
2022-10-19T10:46:32.341Z,1.77
2022-10-19T10:51:42.402Z,1.95
2022-10-19T10:57:06.300Z,2.30
2022-10-19T11:02:27.917Z,1.80
2022-10-19T11:07:36.619Z,1.92
2022-10-19T11:12:46.935Z,2.33
2022-10-19T11:18:03.698Z,1.98
2022-10-19T11:23:22.274Z,1.87
2022-10-19T11:28:38.985Z,1.23
2022-10-19T11:33:57.714Z,1.88
2022-10-19T11:39:21.686Z,1.90
2022-10-19T11:44:43.795Z,1.97
2022-10-19T11:50:05.297Z,1.98
2022-10-19T11:55:24.728Z,2.15
2022-10-19T12:00:39.019Z,1.80
2022-10-19T12:06:09.281Z,1.55
2022-10-19T12:11:34.104Z,1.77
2022-10-19T12:16:43.975Z,1.97
2022-10-19T12:21:54.047Z,1.75
2022-10-19T12:27:00.247Z,1.63
2022-10-19T12:32:08.028Z,2.00
2022-10-19T12:37:24.462Z,2.30
2022-10-19T12:42:34.959Z,1.60
2022-10-19T12:47:41.195Z,1.60
2022-10-19T12:52:53.114Z,1.42
2022-10-19T12:58:07.859Z,1.80
2022-10-19T13:03:26.362Z,1.37
2022-10-19T13:08:44.713Z,1.60
2022-10-19T13:14:02.342Z,1.30
2022-10-19T13:19:21.433Z,1.40
2022-10-19T13:24:36.911Z,1.30
2022-10-19T13:29:44.914Z,1.27
2022-10-19T13:34:50.742Z,0.93
2022-10-19T13:39:59.158Z,1.15
2022-10-19T13:45:06.359Z,1.17
2022-10-19T13:50:44.135Z,1.20
2022-10-19T13:56:22.729Z,1.58
2022-10-19T14:01:41.294Z,1.20
2022-10-19T14:06:50.831Z,1.10
2022-10-19T14:12:06.961Z,1.25
2022-10-19T14:17:21.383Z,1.08
2022-10-19T14:22:30.304Z,0.87
2022-10-19T14:27:38.991Z,1.10
2022-10-19T14:32:45.834Z,1.25
2022-10-19T14:37:51.924Z,1.00
2022-10-19T14:43:01.589Z,0.90
2022-10-19T14:48:09.857Z,1.35
2022-10-19T14:53:34.616Z,1.13
2022-10-19T14:58:49.912Z,1.38
2022-10-19T15:03:55.641Z,1.20
2022-10-19T15:09:07.379Z,1.30
2022-10-19T15:14:24.995Z,1.40
2022-10-19T15:19:33.467Z,1.40
2022-10-19T15:24:40.458Z,1.87
2022-10-19T15:29:57.460Z,1.17
2022-10-19T15:35:03.284Z,1.48
2022-10-19T15:40:14.703Z,1.73
2022-10-19T15:45:46.638Z,1.10
2022-10-19T15:50:53.477Z,1.55
2022-10-19T15:55:58.766Z,1.77
2022-10-19T16:01:07.678Z,1.87
2022-10-19T16:06:13.834Z,1.70
2022-10-19T16:11:21.137Z,1.33
2022-10-19T16:16:39.548Z,1.80
2022-10-19T16:21:50.036Z,1.65
2022-10-19T16:26:55.583Z,1.70
2022-10-19T16:32:04.124Z,1.88
2022-10-19T16:37:09.398Z,1.77
2022-10-19T16:42:15.092Z,1.60
2022-10-19T16:47:22.926Z,1.80
2022-10-19T16:52:28.798Z,2.20
2022-10-19T16:57:34.468Z,1.97
2022-10-19T17:02:45.827Z,1.77
2022-10-19T17:07:52.384Z,1.67
2022-10-19T17:12:57.854Z,1.90
2022-10-19T17:18:07.520Z,1.80
2022-10-19T17:23:13.004Z,1.77
2022-10-19T17:33:32.978Z,2.10
2022-10-19T17:38:39.726Z,2.37
2022-10-19T17:43:47.565Z,2.50
2022-10-19T17:48:55.893Z,2.40
2022-10-19T17:54:03.957Z,2.73
2022-10-19T17:59:10.455Z,3.42
2022-10-19T18:04:18.733Z,2.67
2022-10-19T18:09:24.352Z,3.23
2022-10-19T18:14:29.572Z,2.60
2022-10-19T18:19:43.760Z,2.80
2022-10-19T18:24:49.816Z,2.70
2022-10-19T18:29:55.446Z,2.80
2022-10-19T18:35:03.670Z,3.03
2022-10-19T18:40:10.736Z,2.80
2022-10-19T18:45:16.248Z,2.33
2022-10-19T18:50:24.064Z,2.40
2022-10-19T18:55:29.500Z,2.40
2022-10-19T19:00:35.642Z,2.10
2022-10-19T19:05:43.587Z,2.03
2022-10-19T19:10:49.223Z,2.03
2022-10-19T19:16:01.545Z,2.08
2022-10-19T19:21:17.947Z,2.20
2022-10-19T19:26:26.423Z,1.90
2022-10-19T19:31:32.341Z,1.98
2022-10-19T19:36:47.032Z,2.23
2022-10-19T19:41:53.931Z,2.07
2022-10-19T19:46:59.670Z,2.25
2022-10-19T19:52:08.003Z,2.10
2022-10-19T19:57:13.687Z,2.53
2022-10-19T20:02:19.431Z,2.22
2022-10-19T20:07:27.637Z,2.37
2022-10-19T20:12:33.311Z,2.47
2022-10-19T20:17:38.699Z,2.30
2022-10-19T20:22:52.070Z,2.33
2022-10-19T20:27:57.803Z,2.58
2022-10-19T20:33:03.215Z,2.22
2022-10-19T20:38:13.658Z,2.43
2022-10-19T20:43:19.626Z,2.05
2022-10-19T20:48:25.377Z,2.78
2022-10-19T20:53:33.401Z,2.73
2022-10-19T20:58:41.157Z,2.70
2022-10-19T21:03:49.131Z,2.00
2022-10-19T21:08:58.826Z,2.67
2022-10-19T21:14:06.537Z,2.20
2022-10-19T21:19:15.819Z,2.60
2022-10-19T21:24:25.689Z,2.60
2022-10-19T21:29:31.288Z,2.58
2022-10-19T21:34:37.855Z,2.40
2022-10-19T21:39:45.847Z,2.63
2022-10-19T21:44:54.046Z,2.60
2022-10-19T21:50:07.171Z,2.93
2022-10-19T21:55:15.558Z,2.63
2022-10-19T22:00:20.970Z,2.60
2022-10-19T22:05:26.457Z,2.77
2022-10-19T22:10:35.039Z,2.50
2022-10-19T22:15:40.515Z,3.37
2022-10-19T22:20:46.674Z,2.40
2022-10-19T22:44:40.127Z,3.53
2022-10-19T22:49:46.823Z,3.43
2022-10-19T22:54:52.120Z,3.40
2022-10-19T23:00:00.810Z,4.00
2022-10-19T23:05:06.304Z,3.90
2022-10-19T23:10:12.759Z,3.90
2022-10-19T23:15:21.224Z,3.53
2022-10-19T23:20:26.704Z,4.35
2022-10-19T23:31:01.373Z,3.80
2022-10-19T23:36:09.148Z,4.05
2022-10-19T23:41:15.275Z,3.87
2022-10-19T23:46:23.797Z,4.10
2022-10-19T23:51:29.268Z,3.95
2022-10-19T23:56:34.922Z,4.23
